Terminal Aerodrome Forecast
Issued by NWS

Home | Current Version | Previous Version | Text Only | Print | Product List | Glossary On
Versions: 1 2 3 4 5 6 7 8 9 10 11 12 13
000
FTUS43 KDTX 161507 AAA
TAFMBS
TAF AMD
KMBS 161507Z 1615/1712 20004KT 4SM BR BKN150
     FM161700 18004KT 5SM BR SCT040 OVC060
      TEMPO 1619/1623 2SM -SNPL OVC040
     FM162300 12005KT 1 1/2SM -SNPL BKN020 OVC040
     FM170000 12005KT 2SM -FZRA BR OVC014
     FM170800 08010KT 2SM RA BR OVC008=

USA.gov is the U.S. government's official web portal to all federal, state and local government web resources and services.